CTV434 WARR-WALL
Flight info
| Callsign | CTV434 |
|---|---|
| Flight time | 1h 12m |
| Altitude | 37000 |
| Route | RAMPY T13 IKAPI T11 KAYAN |
| Aircraft | A320/M-SDE2E3FGHIRWY/LB1 |
Departure
| Time | 2026-05-04 09:04 |
|---|---|
| Airport | Juanda International Airport (WARR) |
Arrival
| Time | 2026-05-04 10:16 |
|---|---|
| Airport | Sultan Aji Muhammad Sulaiman Sepinggan International Airport (WALL) |
| Time | Latitude | Longitude | Altitude | Speed | Heading |
|---|---|---|---|---|---|
| 2026-05-04 08:27 | -7.37597 | 112.79534 | 10 ft | 0 kts | 10° |
| 2026-05-04 08:54 | -7.37690 | 112.79542 | 13 ft | 1 kts | 279° |
| 2026-05-04 08:57 | -7.37632 | 112.79109 | 9 ft | 9 kts | 236° |
| 2026-05-04 09:01 | -7.37678 | 112.77880 | 9 ft | 19 kts | 279° |
| 2026-05-04 09:01 | -7.37657 | 112.77752 | 9 ft | 18 kts | 279° |
| 2026-05-04 09:01 | -7.37638 | 112.77635 | 9 ft | 16 kts | 279° |
| 2026-05-04 09:01 | -7.37620 | 112.77528 | 9 ft | 15 kts | 279° |
| 2026-05-04 09:02 | -7.37609 | 112.77431 | 9 ft | 13 kts | 262° |
| 2026-05-04 09:02 | -7.37669 | 112.77382 | 8 ft | 11 kts | 192° |
| 2026-05-04 09:02 | -7.37742 | 112.77368 | 9 ft | 10 kts | 181° |
| 2026-05-04 09:02 | -7.37776 | 112.77403 | 9 ft | 7 kts | 99° |
| 2026-05-04 09:03 | -7.37793 | 112.77510 | 9 ft | 41 kts | 99° |
| 2026-05-04 09:03 | -7.37876 | 112.78030 | 9 ft | 106 kts | 99° |
| 2026-05-04 09:03 | -7.38024 | 112.78944 | 17 ft | 156 kts | 98° |
| 2026-05-04 09:03 | -7.38191 | 112.80056 | 545 ft | 163 kts | 98° |
| 2026-05-04 09:04 | -7.38369 | 112.81183 | 1227 ft | 163 kts | 99° |
| 2026-05-04 09:04 | -7.38561 | 112.82361 | 1622 ft | 180 kts | 98° |
| 2026-05-04 09:04 | -7.38775 | 112.83684 | 1913 ft | 202 kts | 98° |
| 2026-05-04 09:04 | -7.38649 | 112.85168 | 2194 ft | 228 kts | 67° |
| 2026-05-04 09:05 | -7.37585 | 112.86428 | 2534 ft | 253 kts | 33° |
| 2026-05-04 09:05 | -7.35993 | 112.87299 | 3126 ft | 265 kts | 27° |
| 2026-05-04 09:05 | -7.34313 | 112.88110 | 3905 ft | 270 kts | 26° |
| 2026-05-04 09:05 | -7.32595 | 112.88912 | 4722 ft | 274 kts | 26° |
| 2026-05-04 09:06 | -7.30851 | 112.89725 | 5518 ft | 278 kts | 26° |
| 2026-05-04 09:07 | -7.18078 | 112.95901 | 10361 ft | 319 kts | 27° |
| 2026-05-04 09:08 | -7.16015 | 112.96912 | 10540 ft | 340 kts | 27° |
| 2026-05-04 09:08 | -7.13855 | 112.97966 | 11022 ft | 349 kts | 27° |
| 2026-05-04 09:08 | -7.11655 | 112.99037 | 11639 ft | 353 kts | 27° |
| 2026-05-04 09:08 | -7.09437 | 113.00117 | 12277 ft | 356 kts | 27° |
| 2026-05-04 09:09 | -7.07196 | 113.01208 | 12898 ft | 359 kts | 27° |
| 2026-05-04 09:09 | -7.04934 | 113.02309 | 13506 ft | 363 kts | 27° |
| 2026-05-04 09:09 | -7.02652 | 113.03419 | 14065 ft | 366 kts | 27° |
| 2026-05-04 09:09 | -7.00347 | 113.04541 | 14601 ft | 369 kts | 27° |
| 2026-05-04 09:10 | -6.98023 | 113.05669 | 15134 ft | 372 kts | 27° |
| 2026-05-04 09:10 | -6.95682 | 113.06808 | 15666 ft | 376 kts | 27° |
| 2026-05-04 09:10 | -6.93319 | 113.07956 | 16187 ft | 379 kts | 27° |
| 2026-05-04 09:10 | -6.90967 | 113.09098 | 16698 ft | 382 kts | 27° |
| 2026-05-04 09:11 | -6.88562 | 113.10269 | 17210 ft | 385 kts | 27° |
| 2026-05-04 09:11 | -6.86142 | 113.11450 | 17709 ft | 389 kts | 27° |
| 2026-05-04 09:11 | -6.83699 | 113.12640 | 18182 ft | 392 kts | 27° |
| 2026-05-04 09:11 | -6.81235 | 113.13839 | 18609 ft | 395 kts | 27° |
| 2026-05-04 09:12 | -6.78755 | 113.15042 | 19043 ft | 397 kts | 27° |
| 2026-05-04 09:12 | -6.76260 | 113.16251 | 19471 ft | 399 kts | 27° |
| 2026-05-04 09:14 | -6.58430 | 113.24935 | 22325 ft | 414 kts | 27° |
| 2026-05-04 09:14 | -6.55831 | 113.26198 | 22706 ft | 417 kts | 27° |
| 2026-05-04 09:14 | -6.53212 | 113.27470 | 23079 ft | 419 kts | 27° |
| 2026-05-04 09:14 | -6.50518 | 113.28600 | 23438 ft | 422 kts | 19° |
| 2026-05-04 09:15 | -6.47659 | 113.29325 | 23729 ft | 425 kts | 14° |
| 2026-05-04 09:15 | -6.44771 | 113.29994 | 24039 ft | 427 kts | 14° |
| 2026-05-04 09:15 | -6.41873 | 113.30672 | 24359 ft | 428 kts | 14° |
| 2026-05-04 09:15 | -6.38964 | 113.31356 | 24671 ft | 430 kts | 14° |
| 2026-05-04 09:17 | -6.16102 | 113.38972 | 27038 ft | 441 kts | 27° |
| 2026-05-04 09:18 | -6.13341 | 113.40326 | 27322 ft | 443 kts | 27° |
| 2026-05-04 09:18 | -6.10563 | 113.41684 | 27620 ft | 444 kts | 27° |
| 2026-05-04 09:18 | -6.07777 | 113.43039 | 27906 ft | 446 kts | 27° |
| 2026-05-04 09:18 | -6.04980 | 113.44404 | 28192 ft | 448 kts | 27° |
| 2026-05-04 09:19 | -6.02177 | 113.45774 | 28475 ft | 449 kts | 27° |
| 2026-05-04 09:19 | -5.99358 | 113.47148 | 28753 ft | 451 kts | 27° |
| 2026-05-04 09:19 | -5.96532 | 113.48528 | 29021 ft | 452 kts | 27° |
| 2026-05-04 09:19 | -5.93700 | 113.49914 | 29290 ft | 454 kts | 27° |
| 2026-05-04 09:20 | -5.90858 | 113.51304 | 29546 ft | 455 kts | 27° |
| 2026-05-04 09:20 | -5.88003 | 113.52697 | 29790 ft | 457 kts | 27° |
| 2026-05-04 09:20 | -5.85138 | 113.54093 | 30028 ft | 458 kts | 27° |
| 2026-05-04 09:20 | -5.82263 | 113.55495 | 30229 ft | 460 kts | 27° |
| 2026-05-04 09:21 | -5.79386 | 113.56900 | 30448 ft | 461 kts | 27° |
| 2026-05-04 09:21 | -5.76494 | 113.58310 | 30660 ft | 463 kts | 27° |
| 2026-05-04 09:21 | -5.73592 | 113.59725 | 30851 ft | 464 kts | 27° |
| 2026-05-04 09:21 | -5.70686 | 113.61142 | 31064 ft | 465 kts | 27° |
| 2026-05-04 09:22 | -5.67785 | 113.62558 | 31396 ft | 463 kts | 27° |
| 2026-05-04 09:22 | -5.64928 | 113.63951 | 31705 ft | 462 kts | 27° |
| 2026-05-04 09:22 | -5.62001 | 113.65373 | 32004 ft | 461 kts | 27° |
| 2026-05-04 09:22 | -5.59159 | 113.66755 | 32295 ft | 460 kts | 27° |
| 2026-05-04 09:23 | -5.56281 | 113.68158 | 32588 ft | 459 kts | 27° |
| 2026-05-04 09:23 | -5.53408 | 113.69558 | 32886 ft | 459 kts | 27° |
| 2026-05-04 09:23 | -5.50538 | 113.70955 | 33183 ft | 458 kts | 27° |
| 2026-05-04 09:23 | -5.47677 | 113.72354 | 33479 ft | 457 kts | 27° |
| 2026-05-04 09:25 | -5.27756 | 113.82043 | 35313 ft | 452 kts | 27° |
| 2026-05-04 09:25 | -5.24930 | 113.83424 | 35546 ft | 451 kts | 27° |
| 2026-05-04 09:26 | -5.22108 | 113.84800 | 35773 ft | 451 kts | 27° |
| 2026-05-04 09:26 | -5.19286 | 113.86171 | 35997 ft | 450 kts | 27° |
| 2026-05-04 09:26 | -5.16470 | 113.87539 | 36211 ft | 450 kts | 27° |
| 2026-05-04 09:26 | -5.13657 | 113.88907 | 36433 ft | 449 kts | 27° |
| 2026-05-04 09:27 | -5.10853 | 113.90275 | 36637 ft | 449 kts | 27° |
| 2026-05-04 09:27 | -5.08083 | 113.91628 | 36835 ft | 448 kts | 27° |
| 2026-05-04 09:27 | -5.05283 | 113.92997 | 36993 ft | 448 kts | 27° |
| 2026-05-04 09:27 | -5.02479 | 113.94364 | 37032 ft | 447 kts | 27° |
| 2026-05-04 09:28 | -4.96882 | 113.97082 | 37031 ft | 446 kts | 27° |
| 2026-05-04 09:28 | -4.91608 | 114.00339 | 37033 ft | 446 kts | 34° |
| 2026-05-04 09:29 | -4.86438 | 114.03771 | 37032 ft | 446 kts | 34° |
| 2026-05-04 09:29 | -4.81269 | 114.07200 | 37031 ft | 446 kts | 34° |
| 2026-05-04 09:30 | -4.76089 | 114.10632 | 37033 ft | 446 kts | 34° |
| 2026-05-04 09:30 | -4.70908 | 114.14058 | 37037 ft | 446 kts | 34° |
| 2026-05-04 09:31 | -4.65727 | 114.17493 | 37037 ft | 447 kts | 34° |
| 2026-05-04 09:31 | -4.60543 | 114.20932 | 37040 ft | 447 kts | 34° |
| 2026-05-04 09:32 | -4.55385 | 114.24344 | 37041 ft | 447 kts | 34° |
| 2026-05-04 09:34 | -4.34579 | 114.38115 | 37032 ft | 449 kts | 34° |
| 2026-05-04 09:34 | -4.29361 | 114.41565 | 37035 ft | 449 kts | 34° |
| 2026-05-04 09:35 | -4.24140 | 114.45020 | 37035 ft | 450 kts | 34° |
| 2026-05-04 09:35 | -4.18910 | 114.48468 | 37038 ft | 450 kts | 34° |
| 2026-05-04 09:37 | -3.98871 | 114.61723 | 37044 ft | 451 kts | 34° |
| 2026-05-04 09:38 | -3.93670 | 114.65156 | 37040 ft | 451 kts | 34° |
| 2026-05-04 09:38 | -3.88439 | 114.68613 | 37041 ft | 450 kts | 34° |
| 2026-05-04 09:39 | -3.83209 | 114.72073 | 37044 ft | 450 kts | 34° |
| 2026-05-04 09:39 | -3.77979 | 114.75525 | 37037 ft | 450 kts | 34° |
| 2026-05-04 09:40 | -3.72751 | 114.78975 | 37032 ft | 450 kts | 34° |
| 2026-05-04 09:40 | -3.67522 | 114.82428 | 37031 ft | 450 kts | 34° |
| 2026-05-04 09:42 | -3.46615 | 114.96233 | 37026 ft | 450 kts | 34° |
| 2026-05-04 09:43 | -3.41392 | 114.99677 | 37027 ft | 450 kts | 34° |
| 2026-05-04 09:43 | -3.36170 | 115.03122 | 37024 ft | 450 kts | 34° |
| 2026-05-04 09:44 | -3.30980 | 115.06546 | 37026 ft | 450 kts | 34° |
| 2026-05-04 09:46 | -3.10061 | 115.20360 | 37029 ft | 451 kts | 34° |
| 2026-05-04 09:46 | -3.04816 | 115.23815 | 37033 ft | 451 kts | 34° |
| 2026-05-04 09:47 | -2.99571 | 115.27265 | 37031 ft | 451 kts | 34° |
| 2026-05-04 09:49 | -2.78606 | 115.41083 | 37037 ft | 452 kts | 34° |
| 2026-05-04 09:51 | -2.60190 | 115.53226 | 37049 ft | 453 kts | 34° |
| 2026-05-04 09:51 | -2.54922 | 115.56692 | 37049 ft | 453 kts | 34° |
| 2026-05-04 09:52 | -2.49654 | 115.60164 | 37050 ft | 453 kts | 34° |
| 2026-05-04 09:52 | -2.44382 | 115.63633 | 37049 ft | 454 kts | 34° |
| 2026-05-04 09:53 | -2.39143 | 115.67084 | 37052 ft | 454 kts | 34° |
| 2026-05-04 09:53 | -2.33865 | 115.70561 | 37049 ft | 454 kts | 34° |
| 2026-05-04 09:54 | -2.28580 | 115.74037 | 37050 ft | 455 kts | 34° |
| 2026-05-04 09:54 | -2.23369 | 115.77618 | 37049 ft | 454 kts | 41° |
| 2026-05-04 09:55 | -2.18981 | 115.82146 | 37046 ft | 454 kts | 48° |
| 2026-05-04 09:55 | -2.14709 | 115.86791 | 37048 ft | 454 kts | 48° |
| 2026-05-04 09:56 | -2.10432 | 115.91437 | 37044 ft | 454 kts | 47° |
| 2026-05-04 09:56 | -2.06150 | 115.96080 | 37047 ft | 454 kts | 47° |
| 2026-05-04 09:57 | -2.01869 | 116.00724 | 37048 ft | 454 kts | 48° |
| 2026-05-04 09:57 | -1.99800 | 116.02969 | 36661 ft | 452 kts | 48° |
| 2026-05-04 09:57 | -1.97605 | 116.05350 | 35924 ft | 451 kts | 48° |
| 2026-05-04 09:57 | -1.95478 | 116.07659 | 35022 ft | 452 kts | 48° |
| 2026-05-04 09:58 | -1.93344 | 116.09974 | 34030 ft | 454 kts | 48° |
| 2026-05-04 09:58 | -1.91169 | 116.12334 | 32318 ft | 470 kts | 48° |
| 2026-05-04 09:58 | -1.88927 | 116.14765 | 30836 ft | 480 kts | 48° |
| 2026-05-04 10:00 | -1.73098 | 116.31952 | 23445 ft | 437 kts | 47° |
| 2026-05-04 10:00 | -1.71067 | 116.34159 | 22714 ft | 427 kts | 47° |
| 2026-05-04 10:02 | -1.57677 | 116.48840 | 17450 ft | 392 kts | 50° |
| 2026-05-04 10:04 | -1.51232 | 116.61748 | 13634 ft | 370 kts | 65° |
| 2026-05-04 10:04 | -1.50154 | 116.64065 | 13003 ft | 364 kts | 65° |
| 2026-05-04 10:04 | -1.49117 | 116.66292 | 12867 ft | 343 kts | 65° |
| 2026-05-04 10:04 | -1.48136 | 116.68399 | 12739 ft | 325 kts | 65° |
| 2026-05-04 10:05 | -1.47215 | 116.70373 | 12572 ft | 311 kts | 65° |
| 2026-05-04 10:05 | -1.46310 | 116.72309 | 12193 ft | 305 kts | 65° |
| 2026-05-04 10:05 | -1.45418 | 116.74220 | 11747 ft | 302 kts | 65° |
| 2026-05-04 10:05 | -1.44533 | 116.76115 | 11282 ft | 300 kts | 65° |
| 2026-05-04 10:06 | -1.43655 | 116.77998 | 10819 ft | 298 kts | 66° |
| 2026-05-04 10:06 | -1.42781 | 116.79873 | 10362 ft | 296 kts | 66° |
| 2026-05-04 10:06 | -1.41977 | 116.81755 | 9896 ft | 294 kts | 69° |
| 2026-05-04 10:08 | -1.37903 | 116.93071 | 6894 ft | 283 kts | 71° |
| 2026-05-04 10:08 | -1.37231 | 116.94917 | 6404 ft | 282 kts | 71° |
| 2026-05-04 10:08 | -1.36560 | 116.96750 | 5892 ft | 280 kts | 71° |
| 2026-05-04 10:08 | -1.35890 | 116.98575 | 5366 ft | 279 kts | 71° |
| 2026-05-04 10:09 | -1.35224 | 117.00387 | 4850 ft | 277 kts | 70° |
| 2026-05-04 10:09 | -1.34565 | 117.02188 | 4340 ft | 276 kts | 70° |
| 2026-05-04 10:09 | -1.33909 | 117.03987 | 3961 ft | 275 kts | 70° |
| 2026-05-04 10:09 | -1.33266 | 117.05749 | 3590 ft | 273 kts | 69° |
| 2026-05-04 10:10 | -1.32333 | 117.07367 | 3456 ft | 260 kts | 48° |
| 2026-05-04 10:10 | -1.30967 | 117.08431 | 3340 ft | 248 kts | 25° |
| 2026-05-04 10:10 | -1.29356 | 117.08890 | 3216 ft | 236 kts | 3° |
| 2026-05-04 10:10 | -1.27753 | 117.08742 | 3004 ft | 230 kts | 342° |
| 2026-05-04 10:11 | -1.26335 | 117.08049 | 2716 ft | 227 kts | 321° |
| 2026-05-04 10:11 | -1.25274 | 117.06937 | 2580 ft | 217 kts | 301° |
| 2026-05-04 10:11 | -1.24645 | 117.05611 | 2502 ft | 206 kts | 289° |
| 2026-05-04 10:11 | -1.24141 | 117.04282 | 2508 ft | 203 kts | 289° |
| 2026-05-04 10:12 | -1.23641 | 117.02969 | 2506 ft | 202 kts | 289° |
| 2026-05-04 10:12 | -1.23140 | 117.01657 | 2358 ft | 201 kts | 289° |
| 2026-05-04 10:12 | -1.22730 | 117.00367 | 2076 ft | 191 kts | 277° |
| 2026-05-04 10:12 | -1.22789 | 116.99097 | 1788 ft | 177 kts | 255° |
| 2026-05-04 10:13 | -1.23211 | 116.97988 | 1551 ft | 165 kts | 246° |
| 2026-05-04 10:13 | -1.23644 | 116.96963 | 1338 ft | 156 kts | 245° |
| 2026-05-04 10:13 | -1.24061 | 116.95976 | 1148 ft | 153 kts | 245° |
| 2026-05-04 10:13 | -1.24473 | 116.95005 | 955 ft | 151 kts | 245° |
| 2026-05-04 10:14 | -1.24884 | 116.94038 | 780 ft | 151 kts | 246° |
| 2026-05-04 10:14 | -1.25293 | 116.93071 | 608 ft | 151 kts | 246° |
| 2026-05-04 10:16 | -1.27215 | 116.88389 | 21 ft | 15 kts | 310° |
| 2026-05-04 10:16 | -1.27122 | 116.88379 | 24 ft | 14 kts | 33° |
| 2026-05-04 10:16 | -1.27072 | 116.88465 | 22 ft | 14 kts | 64° |
| 2026-05-04 10:16 | -1.27030 | 116.88556 | 21 ft | 14 kts | 67° |
| 2026-05-04 10:17 | -1.26991 | 116.88648 | 21 ft | 14 kts | 67° |
| 2026-05-04 10:17 | -1.26952 | 116.88740 | 21 ft | 14 kts | 67° |
| 2026-05-04 10:19 | -1.26672 | 116.89402 | 21 ft | 18 kts | 68° |
| 2026-05-04 10:19 | -1.26624 | 116.89518 | 21 ft | 19 kts | 68° |
| 2026-05-04 10:19 | -1.26572 | 116.89642 | 22 ft | 20 kts | 67° |
| 2026-05-04 10:19 | -1.26532 | 116.89738 | 21 ft | 8 kts | 66° |
| 2026-05-04 10:20 | -1.26491 | 116.89775 | 21 ft | 9 kts | 4° |
| 2026-05-04 10:20 | -1.26429 | 116.89779 | 21 ft | 9 kts | 45° |
| 2026-05-04 10:20 | -1.26407 | 116.89819 | 21 ft | 3 kts | 65° |
| 2026-05-04 10:20 | -1.26393 | 116.89833 | 21 ft | 2 kts | 19° |
| 2026-05-04 10:21 | -1.26377 | 116.89831 | 21 ft | 2 kts | 347° |
| 2026-05-04 10:21 | -1.26365 | 116.89827 | 21 ft | 2 kts | 341° |
| 2026-05-04 10:21 | -1.26354 | 116.89823 | 21 ft | 2 kts | 338° |
| 2026-05-04 10:21 | -1.26346 | 116.89819 | 22 ft | 1 kts | 338° |
| 2026-05-04 10:22 | -1.26333 | 116.89813 | 22 ft | 1 kts | 335° |
| 2026-05-04 10:22 | -1.26330 | 116.89812 | 21 ft | 0 kts | 336° |
| 2026-05-04 10:22 | -1.26328 | 116.89811 | 21 ft | 0 kts | 336° |
| 2026-05-04 10:23 | -1.26327 | 116.89811 | 21 ft | 0 kts | 336° |